Terminal Aerodrome Forecast
Issued by NWS

Home | Current Version | Previous Version | Graphics & Text | Print | Product List | Glossary On
Versions: 1 2 3 4 5 6 7 8 9 10 11 12
000
FTUS43 KLSX 250900 AAA
TAFSUS
TAF AMD
KSUS 250912Z 2509/2606 23006KT P6SM OVC025
     FM251000 21005KT P6SM FEW025
     FM251600 19011G17KT P6SM BKN250
     FM252300 17006KT P6SM BKN250=

USA.gov is the U.S. government's official web portal to all federal, state and local government web resources and services.